Time;durP1;ratioP1;P1;durP2;ratioP2;P2;SDS_P1;SDS_P2;PMS_P1;PMS_P2;Temp;Humidity;BMP_temperature;BMP_pressure;BME280_temperature;BME280_humidity;BME280_pressure;Samples;Min_cycle;Max_cycle;Signal;HPM_P1;HPM_P2
2023/09/19 00:00:44;;;;;;;38.35;13.35;;;24.90;86.90;;;;;;5032798;28;20389;-66
2023/09/19 00:03:47;;;;;;;34.05;12.20;;;24.90;87.40;;;;;;5032789;28;20045;-66
2023/09/19 00:06:53;;;;;;;32.45;12.70;;;24.90;86.70;;;;;;5032584;28;20056;-67
2023/09/19 00:09:57;;;;;;;36.00;12.93;;;25.00;86.50;;;;;;5032650;28;20044;-67
2023/09/19 00:13:07;;;;;;;39.67;13.52;;;25.00;86.40;;;;;;5032755;28;20117;-67
2023/09/19 00:16:12;;;;;;;33.20;12.93;;;25.50;87.10;;;;;;5032467;28;20048;-67
2023/09/19 00:19:16;;;;;;;37.95;12.73;;;24.90;87.10;;;;;;5033039;28;20048;-67
2023/09/19 00:22:20;;;;;;;31.42;13.20;;;24.90;87.10;;;;;;5031405;28;20044;-67
2023/09/19 00:25:23;;;;;;;31.27;12.68;;;24.80;86.70;;;;;;5032370;28;20644;-67
2023/09/19 00:28:31;;;;;;;27.83;13.55;;;24.70;87.60;;;;;;5032056;28;20068;-67
2023/09/19 00:31:37;;;;;;;34.90;14.35;;;24.70;88.00;;;;;;5031492;28;20045;-67
2023/09/19 00:34:42;;;;;;;31.02;12.50;;;24.60;87.70;;;;;;5032035;28;20060;-68
2023/09/19 00:37:46;;;;;;;32.08;12.95;;;24.50;88.10;;;;;;5031208;28;20040;-67
2023/09/19 00:40:54;;;;;;;24.02;12.70;;;24.50;88.30;;;;;;5031334;28;20064;-67
2023/09/19 00:44:00;;;;;;;36.58;13.50;;;24.50;88.40;;;;;;5030997;28;20044;-67
2023/09/19 00:47:04;;;;;;;36.75;14.30;;;24.50;88.30;;;;;;5030850;28;20048;-67
2023/09/19 00:50:10;;;;;;;31.25;14.55;;;24.60;87.60;;;;;;5031912;28;20032;-67
2023/09/19 00:53:18;;;;;;;32.33;15.00;;;24.30;88.60;;;;;;5031648;28;20405;-67
2023/09/19 00:56:23;;;;;;;36.85;15.30;;;24.30;88.90;;;;;;5031826;28;20049;-67
2023/09/19 00:59:27;;;;;;;33.05;14.32;;;24.30;89.10;;;;;;5031630;28;20144;-67
2023/09/19 01:02:32;;;;;;;35.28;14.60;;;24.30;89.30;;;;;;5031572;28;20136;-67
2023/09/19 01:05:36;;;;;;;42.65;15.15;;;23.10;88.90;;;;;;5042166;28;20056;-67
2023/09/19 01:08:40;;;;;;;31.83;14.52;;;24.10;89.90;;;;;;5030256;28;20056;-67
2023/09/19 01:11:48;;;;;;;33.70;14.15;;;24.00;89.90;;;;;;5031345;28;20117;-67
2023/09/19 01:15:06;;;;;;;36.95;15.00;;;24.00;90.10;;;;;;5031144;28;20072;-67
2023/09/19 01:18:37;;;;;;;27.45;14.55;;;25.50;90.70;;;;;;5031220;28;20036;-67
2023/09/19 01:22:06;;;;;;;31.15;15.35;;;23.90;90.40;;;;;;5030576;28;20040;-67
2023/09/19 01:25:45;;;;;;;29.00;14.05;;;23.80;90.60;;;;;;5030816;28;20452;-67
2023/09/19 01:29:01;;;;;;;33.33;14.48;;;23.80;90.60;;;;;;5031054;28;20056;-67
2023/09/19 01:32:06;;;;;;;29.38;14.23;;;23.80;90.80;;;;;;5031236;28;20048;-67
2023/09/19 01:35:12;;;;;;;24.67;14.50;;;23.70;90.90;;;;;;5030193;28;20517;-67
2023/09/19 01:38:19;;;;;;;24.80;13.52;;;23.70;90.90;;;;;;5030946;28;20402;-67
2023/09/19 01:42:04;;;;;;;31.45;15.75;;;23.80;91.00;;;;;;5030213;28;20040;-67
2023/09/19 01:45:33;;;;;;;28.92;15.70;;;23.90;90.60;;;;;;5030643;28;20048;-67
2023/09/19 01:48:46;;;;;;;32.67;14.52;;;23.90;90.60;;;;;;5030804;28;20056;-69
2023/09/19 01:52:02;;;;;;;30.65;15.48;;;23.80;90.60;;;;;;5030801;28;20036;-68
2023/09/19 01:55:09;;;;;;;31.92;15.00;;;23.80;90.60;;;;;;5030888;28;20064;-68
2023/09/19 01:58:28;;;;;;;25.90;14.77;;;23.70;90.80;;;;;;5030747;28;20045;-68
2023/09/19 02:01:35;;;;;;;34.40;16.02;;;23.60;91.10;;;;;;5030137;28;20057;-68
2023/09/19 02:04:40;;;;;;;35.90;16.38;;;23.70;91.00;;;;;;5030034;28;20040;-68
2023/09/19 02:07:43;;;;;;;34.20;16.20;;;23.70;90.80;;;;;;5030511;28;20409;-68
2023/09/19 02:10:48;;;;;;;25.30;15.73;;;23.50;91.00;;;;;;5053270;28;20048;-68
2023/09/19 02:13:54;;;;;;;33.67;15.45;;;23.60;91.10;;;;;;5029856;28;20048;-68
2023/09/19 02:16:58;;;;;;;33.92;16.42;;;23.50;91.30;;;;;;5030704;28;20048;-68
2023/09/19 02:20:10;;;;;;;39.05;15.70;;;23.50;91.00;;;;;;5029859;28;20049;-68
2023/09/19 02:23:17;;;;;;;34.08;15.15;;;23.50;91.20;;;;;;5030739;28;20043;-67
2023/09/19 02:26:24;;;;;;;29.52;14.45;;;;;;;;;;5029557;28;20036;-66
2023/09/19 02:29:28;;;;;;;28.02;13.30;;;23.60;90.60;;;;;;5030340;28;20048;-69
2023/09/19 02:32:35;;;;;;;26.00;13.57;;;23.40;90.40;;;;;;5030479;28;20045;-68
2023/09/19 02:35:39;;;;;;;30.42;13.38;;;23.20;90.50;;;;;;5030698;28;20056;-68
2023/09/19 02:38:43;;;;;;;30.05;14.07;;;23.30;90.70;;;;;;5030636;28;20052;-68
2023/09/19 02:41:48;;;;;;;29.40;13.25;;;23.20;90.50;;;;;;5030691;28;20481;-68
2023/09/19 02:44:52;;;;;;;27.15;13.68;;;23.10;90.60;;;;;;5030570;28;20397;-68
2023/09/19 02:47:56;;;;;;;25.10;12.82;;;23.00;90.90;;;;;;5033476;28;20512;-67
2023/09/19 02:51:01;;;;;;;26.83;13.02;;;23.10;90.70;;;;;;5033074;28;20044;-68
2023/09/19 02:54:05;;;;;;;24.90;12.38;;;22.90;90.40;;;;;;5034089;28;20070;-68
2023/09/19 02:57:09;;;;;;;26.65;12.65;;;22.90;90.70;;;;;;5033301;28;20052;-68
2023/09/19 03:00:21;;;;;;;30.13;11.90;;;22.90;90.40;;;;;;5034136;28;20036;-68
2023/09/19 03:03:27;;;;;;;22.48;11.70;;;23.00;90.20;;;;;;5033849;28;20048;-68
2023/09/19 03:06:31;;;;;;;28.40;11.85;;;23.00;90.30;;;;;;5033955;28;20033;-68
2023/09/19 03:09:35;;;;;;;26.42;11.48;;;23.00;89.60;;;;;;5033606;28;20048;-68
2023/09/19 03:12:40;;;;;;;28.92;10.95;;;23.10;89.40;;;;;;5032685;28;20044;-68
2023/09/19 03:15:46;;;;;;;32.17;11.02;;;23.10;89.80;;;;;;5033007;28;20052;-68
2023/09/19 03:18:56;;;;;;;26.45;10.93;;;22.80;89.60;;;;;;5032849;28;20060;-68
2023/09/19 03:22:02;;;;;;;22.08;10.10;;;22.80;89.80;;;;;;5032888;28;20679;-68
2023/09/19 03:25:08;;;;;;;26.02;9.98;;;22.80;89.60;;;;;;5033234;28;20078;-68
2023/09/19 03:28:15;;;;;;;21.85;9.95;;;22.70;89.30;;;;;;5032653;28;20048;-68
2023/09/19 03:31:20;;;;;;;25.05;10.13;;;22.50;89.80;;;;;;5032574;28;20044;-68
2023/09/19 03:34:25;;;;;;;23.40;10.00;;;22.40;89.60;;;;;;5032017;28;20064;-68
2023/09/19 03:37:29;;;;;;;20.08;9.30;;;22.30;90.00;;;;;;5032264;28;20515;-68
2023/09/19 03:40:33;;;;;;;21.85;9.93;;;22.30;89.60;;;;;;5032328;28;20338;-68
2023/09/19 03:43:37;;;;;;;15.90;9.23;;;22.40;89.90;;;;;;5032713;28;20048;-68
2023/09/19 03:46:41;;;;;;;24.63;12.02;;;22.40;90.00;;;;;;5032196;28;20041;-68
2023/09/19 03:49:45;;;;;;;26.98;11.07;;;22.30;90.10;;;;;;5032171;28;20504;-68
2023/09/19 03:52:50;;;;;;;28.92;10.70;;;22.40;90.20;;;;;;5032186;28;20045;-68
2023/09/19 03:55:55;;;;;;;24.92;9.80;;;22.40;90.00;;;;;;5032298;28;20045;-68
2023/09/19 03:58:59;;;;;;;25.27;10.25;;;22.40;90.10;;;;;;5031430;28;20056;-68
2023/09/19 04:02:04;;;;;;;23.80;11.35;;;22.40;90.10;;;;;;5032013;28;20472;-68
2023/09/19 04:05:09;;;;;;;24.58;10.57;;;22.30;90.20;;;;;;5031859;28;20057;-68
2023/09/19 04:08:14;;;;;;;24.40;10.00;;;22.20;90.50;;;;;;5031698;28;20060;-68
2023/09/19 04:11:18;;;;;;;23.00;10.45;;;22.10;90.70;;;;;;5031807;28;20386;-68
2023/09/19 04:14:23;;;;;;;25.70;11.77;;;22.00;90.70;;;;;;5031378;28;20064;-68
2023/09/19 04:17:27;;;;;;;27.88;12.80;;;21.90;90.90;;;;;;5032569;28;20048;-68
2023/09/19 04:20:31;;;;;;;23.50;11.85;;;21.90;90.90;;;;;;5032276;28;20052;-68
2023/09/19 04:23:35;;;;;;;27.33;12.00;;;22.20;91.40;;;;;;5032287;28;20504;-68
2023/09/19 04:26:39;;;;;;;25.13;12.73;;;22.00;91.00;;;;;;5031296;28;20036;-68
2023/09/19 04:29:43;;;;;;;28.48;11.57;;;22.10;91.10;;;;;;5031983;28;20052;-68
2023/09/19 04:32:50;;;;;;;36.42;13.20;;;22.20;90.70;;;;;;5032242;28;20040;-68
2023/09/19 04:35:54;;;;;;;32.97;11.70;;;22.20;90.70;;;;;;5031898;28;20053;-68
2023/09/19 04:38:58;;;;;;;34.60;12.65;;;22.20;90.80;;;;;;5031881;28;20065;-68
2023/09/19 04:42:03;;;;;;;31.88;12.32;;;22.20;90.80;;;;;;5031923;28;20044;-68
2023/09/19 04:45:09;;;;;;;27.25;13.05;;;22.10;90.90;;;;;;5031908;28;20112;-68
2023/09/19 04:48:14;;;;;;;32.85;12.32;;;22.10;90.80;;;;;;5031571;28;20056;-68
2023/09/19 04:51:18;;;;;;;30.83;12.93;;;22.10;90.90;;;;;;5031673;28;20036;-68
2023/09/19 04:54:23;;;;;;;31.95;12.88;;;22.10;91.10;;;;;;5031456;28;20068;-68
2023/09/19 04:57:31;;;;;;;29.20;13.52;;;22.00;91.20;;;;;;5031883;28;20049;-68
2023/09/19 05:00:35;;;;;;;28.33;12.88;;;22.10;91.20;;;;;;5031437;28;20060;-68
2023/09/19 05:03:39;;;;;;;22.30;11.75;;;22.20;91.00;;;;;;5031507;28;20374;-68
2023/09/19 05:06:43;;;;;;;70.97;16.25;;;22.10;91.10;;;;;;5031606;28;20501;-68
2023/09/19 05:09:47;;;;;;;41.75;14.10;;;22.10;91.20;;;;;;5030554;28;20508;-68
2023/09/19 05:12:53;;;;;;;41.80;13.90;;;22.10;91.10;;;;;;5031360;28;20493;-68
2023/09/19 05:16:02;;;;;;;32.08;12.93;;;22.10;91.10;;;;;;5031395;28;20544;-68
2023/09/19 05:19:05;;;;;;;32.20;12.73;;;22.20;91.10;;;;;;5031770;28;20472;-68
2023/09/19 05:22:09;;;;;;;26.52;12.23;;;22.40;90.70;;;;;;5031360;28;20056;-68
2023/09/19 05:25:16;;;;;;;26.80;12.30;;;22.60;90.50;;;;;;5031147;28;20397;-68
2023/09/19 05:28:21;;;;;;;35.72;13.15;;;22.90;90.00;;;;;;5031037;28;20049;-67
2023/09/19 05:31:25;;;;;;;35.70;13.52;;;23.20;89.00;;;;;;5031039;28;20060;-68
2023/09/19 05:34:30;;;;;;;36.33;15.07;;;23.50;88.30;;;;;;5030620;28;20064;-68
2023/09/19 05:37:34;;;;;;;44.35;15.45;;;23.20;87.50;;;;;;5030989;28;20056;-68
2023/09/19 05:40:38;;;;;;;40.97;15.07;;;23.50;87.60;;;;;;5030586;28;20048;-68
2023/09/19 05:43:43;;;;;;;56.00;14.15;;;23.60;88.60;;;;;;5030954;28;20049;-68
2023/09/19 05:46:48;;;;;;;36.03;12.70;;;23.60;87.80;;;;;;5030737;28;20049;-68
2023/09/19 05:49:52;;;;;;;48.53;13.63;;;23.50;87.10;;;;;;5029923;28;20053;-69
2023/09/19 05:52:56;;;;;;;38.08;15.23;;;23.70;86.90;;;;;;5030604;28;20032;-68
2023/09/19 05:56:00;;;;;;;46.88;15.75;;;23.60;87.60;;;;;;5030463;28;20041;-68
2023/09/19 05:59:05;;;;;;;40.90;16.80;;;23.60;88.00;;;;;;5030488;28;20044;-69
2023/09/19 06:02:09;;;;;;;40.28;17.75;;;23.60;88.20;;;;;;5030712;28;20560;-68
2023/09/19 06:05:14;;;;;;;50.38;19.17;;;23.70;87.60;;;;;;5029761;28;20069;-68
2023/09/19 06:08:18;;;;;;;42.67;19.08;;;23.80;86.80;;;;;;5030414;28;20064;-68
2023/09/19 06:11:25;;;;;;;39.67;18.25;;;23.90;86.50;;;;;;5030734;28;20061;-68
2023/09/19 06:14:29;;;;;;;62.40;23.83;;;24.10;85.60;;;;;;5030322;28;20052;-68
2023/09/19 06:17:37;;;;;;;52.85;22.08;;;24.10;85.50;;;;;;5029613;28;20453;-68
2023/09/19 06:20:44;;;;;;;51.78;20.88;;;24.40;85.70;;;;;;5031818;28;20044;-68
2023/09/19 06:23:49;;;;;;;47.55;20.50;;;24.30;85.70;;;;;;5034414;28;20433;-68
2023/09/19 06:26:54;;;;;;;46.97;19.10;;;24.20;86.00;;;;;;5034152;28;20492;-68
2023/09/19 06:29:58;;;;;;;52.65;18.52;;;24.20;86.10;;;;;;5034083;28;20052;-68
2023/09/19 06:33:03;;;;;;;46.42;17.38;;;25.50;87.70;;;;;;5033801;28;20508;-67
2023/09/19 06:36:07;;;;;;;65.82;16.25;;;24.30;87.30;;;;;;5034393;28;20512;-68
2023/09/19 06:39:12;;;;;;;50.55;15.35;;;24.30;86.30;;;;;;5033990;28;20049;-67
2023/09/19 06:42:17;;;;;;;56.42;15.68;;;24.40;85.80;;;;;;5034237;28;20235;-68
2023/09/19 06:45:21;;;;;;;52.05;16.65;;;24.50;85.20;;;;;;5033788;28;20036;-68
2023/09/19 06:48:26;;;;;;;48.80;15.95;;;24.70;84.70;;;;;;5033820;28;20056;-69
2023/09/19 06:51:30;;;;;;;35.30;14.88;;;24.70;85.10;;;;;;5034221;28;20064;-69
2023/09/19 06:54:35;;;;;;;43.95;16.02;;;24.90;84.90;;;;;;5033483;28;20064;-68
2023/09/19 06:57:45;;;;;;;43.85;15.32;;;25.10;84.60;;;;;;5033627;28;20072;-68
2023/09/19 07:00:53;;;;;;;57.40;15.23;;;25.10;84.10;;;;;;5033528;28;20048;-68
2023/09/19 07:03:57;;;;;;;45.35;14.43;;;25.10;84.00;;;;;;5033724;28;20044;-68
2023/09/19 07:07:02;;;;;;;39.78;13.73;;;25.10;84.60;;;;;;5033974;28;20041;-69
2023/09/19 07:10:06;;;;;;;37.58;15.18;;;25.10;84.60;;;;;;5034257;28;20061;-69
2023/09/19 07:13:10;;;;;;;32.70;12.55;;;25.10;83.80;;;;;;5033342;28;20040;-68
2023/09/19 07:16:27;;;;;;;40.78;12.95;;;22.80;82.00;;;;;;5033449;28;20052;-68
2023/09/19 07:19:31;;;;;;;32.65;13.43;;;25.20;83.50;;;;;;5033518;28;20045;-68
2023/09/19 07:22:38;;;;;;;40.10;13.55;;;25.20;83.70;;;;;;5033316;28;20428;-68
2023/09/19 07:25:42;;;;;;;46.83;13.07;;;25.30;83.70;;;;;;5033337;28;20357;-68
2023/09/19 07:28:46;;;;;;;43.90;12.63;;;25.30;84.20;;;;;;5033119;28;20052;-68
2023/09/19 07:31:50;;;;;;;56.17;13.85;;;25.30;83.80;;;;;;5032324;28;20040;-69
2023/09/19 07:34:55;;;;;;;293.27;31.33;;;25.30;83.90;;;;;;5031707;28;20208;-68
2023/09/19 07:38:01;;;;;;;243.82;29.00;;;25.30;84.40;;;;;;5033195;28;20496;-67
2023/09/19 07:41:05;;;;;;;278.40;31.15;;;25.30;84.00;;;;;;5033141;28;20048;-67
2023/09/19 07:44:10;;;;;;;138.98;23.88;;;25.20;84.40;;;;;;5032787;28;20076;-69
2023/09/19 07:47:14;;;;;;;182.43;23.63;;;25.30;84.10;;;;;;5032769;28;20064;-68
2023/09/19 07:50:19;;;;;;;160.40;23.55;;;25.30;84.60;;;;;;5032483;28;20052;-68
2023/09/19 07:53:27;;;;;;;171.10;25.30;;;25.40;84.30;;;;;;5031359;28;20388;-68
2023/09/19 07:56:31;;;;;;;91.57;18.67;;;24.10;83.10;;;;;;5032859;28;20048;-68
2023/09/19 07:59:36;;;;;;;134.57;21.60;;;25.30;84.20;;;;;;5032822;28;20048;-68
2023/09/19 08:02:41;;;;;;;80.35;17.67;;;25.50;84.30;;;;;;5032388;28;20060;-67
2023/09/19 08:05:45;;;;;;;62.55;17.40;;;25.40;84.80;;;;;;5032208;28;20065;-67
2023/09/19 08:08:53;;;;;;;44.28;14.80;;;25.40;85.30;;;;;;5032266;28;20052;-67
2023/09/19 08:11:58;;;;;;;68.78;16.42;;;25.40;84.60;;;;;;5032553;28;20053;-67
2023/09/19 08:15:03;;;;;;;53.92;16.65;;;25.40;85.10;;;;;;5032025;28;20048;-68
2023/09/19 08:18:11;;;;;;;54.40;15.45;;;25.40;84.50;;;;;;5032270;28;20497;-68
2023/09/19 08:21:15;;;;;;;53.08;16.85;;;25.50;85.00;;;;;;5032388;28;20049;-68
2023/09/19 08:24:20;;;;;;;44.30;15.18;;;25.50;84.20;;;;;;5032172;28;20044;-67
2023/09/19 08:27:26;;;;;;;37.25;14.68;;;26.80;85.20;;;;;;5032071;28;20489;-68
2023/09/19 08:30:30;;;;;;;27.95;13.70;;;25.60;84.40;;;;;;5032029;28;20052;-68
2023/09/19 08:33:35;;;;;;;52.47;15.43;;;25.70;83.90;;;;;;5031740;28;20060;-68
2023/09/19 08:36:41;;;;;;;33.25;12.95;;;25.80;83.60;;;;;;5031961;28;20377;-68
2023/09/19 08:39:46;;;;;;;34.03;14.07;;;25.80;83.30;;;;;;5031876;28;20056;-68
2023/09/19 08:42:55;;;;;;;41.80;13.35;;;25.90;83.60;;;;;;5030878;28;20512;-70
2023/09/19 08:46:05;;;;;;;34.97;14.73;;;25.90;83.10;;;;;;5031650;28;20040;-69
2023/09/19 08:49:24;;;;;;;33.50;13.70;;;26.10;83.10;;;;;;5031467;28;20060;-67
2023/09/19 08:52:43;;;;;;;25.98;12.50;;;26.20;82.80;;;;;;5031757;28;20500;-69
2023/09/19 08:55:53;;;;;;;27.08;13.27;;;26.40;82.10;;;;;;5031764;28;20088;-69
2023/09/19 08:59:07;;;;;;;28.45;12.15;;;26.40;82.60;;;;;;5031554;28;20052;-69
2023/09/19 09:02:14;;;;;;;19.60;10.40;;;26.40;81.80;;;;;;5031533;28;20717;-67
2023/09/19 09:05:22;;;;;;;19.70;9.93;;;26.60;81.20;;;;;;5031254;28;20045;-69
2023/09/19 09:08:31;;;;;;;27.75;9.68;;;26.60;81.80;;;;;;5030876;28;20405;-69
2023/09/19 09:11:39;;;;;;;21.15;9.95;;;26.60;81.50;;;;;;5031334;28;20032;-68
2023/09/19 09:14:49;;;;;;;39.17;11.73;;;26.60;81.50;;;;;;5030659;28;20052;-70
2023/09/19 09:17:54;;;;;;;26.67;10.40;;;26.70;81.80;;;;;;5030620;28;20036;-69
2023/09/19 09:20:58;;;;;;;23.10;10.05;;;26.70;82.20;;;;;;5029957;28;20512;-69
2023/09/19 09:24:33;;;;;;;25.85;8.90;;;26.80;81.50;;;;;;5029669;28;20036;-69
2023/09/19 09:27:40;;;;;;;43.55;10.60;;;26.90;82.00;;;;;;5031144;28;20052;-69
2023/09/19 09:30:44;;;;;;;26.73;8.55;;;26.90;79.50;;;;;;5030701;28;20048;-69
2023/09/19 09:33:56;;;;;;;33.45;8.88;;;27.10;79.10;;;;;;5030592;28;20055;-69
2023/09/19 09:37:00;;;;;;;25.92;7.90;;;27.20;78.10;;;;;;5030590;28;20052;-69
2023/09/19 09:43:28;;;;;;;20.35;7.90;;;27.60;77.80;;;;;;5030679;28;20060;-69
2023/09/19 09:50:06;;;;;;;25.05;8.25;;;28.00;76.90;;;;;;5030342;28;20048;-69
2023/09/19 09:53:28;;;;;;;18.20;8.30;;;28.10;77.70;;;;;;5030383;28;20040;-69
2023/09/19 09:56:34;;;;;;;20.83;8.90;;;28.30;78.70;;;;;;5036187;28;20044;-69
2023/09/19 09:59:59;;;;;;;30.90;10.40;;;28.50;79.00;;;;;;5037410;28;20040;-70
2023/09/19 10:03:21;;;;;;;28.35;9.07;;;28.60;77.30;;;;;;5037037;28;20068;-69
2023/09/19 10:06:25;;;;;;;18.25;8.02;;;28.60;74.20;;;;;;5037175;28;20048;-69
2023/09/19 10:09:47;;;;;;;23.65;7.35;;;28.60;75.10;;;;;;5037033;28;20049;-70
2023/09/19 10:12:56;;;;;;;15.95;5.93;;;28.60;73.50;;;;;;5037096;28;20049;-69
2023/09/19 10:16:07;;;;;;;13.45;6.32;;;28.60;72.20;;;;;;5037344;28;20052;-68
2023/09/19 10:19:24;;;;;;;12.52;5.50;;;28.70;71.60;;;;;;5037270;28;20052;-68
2023/09/19 10:22:30;;;;;;;9.45;4.32;;;28.80;67.80;;;;;;5037119;28;20504;-69
2023/09/19 10:25:38;;;;;;;8.57;4.30;;;28.90;67.80;;;;;;5037041;28;20041;-69
2023/09/19 10:28:42;;;;;;;18.55;5.50;;;29.00;67.80;;;;;;5037068;28;20053;-69
2023/09/19 10:31:50;;;;;;;14.80;5.25;;;29.10;67.40;;;;;;5036864;28;20036;-68
2023/09/19 10:34:56;;;;;;;39.28;6.80;;;29.10;67.10;;;;;;5036799;28;20056;-68
2023/09/19 10:38:02;;;;;;;28.25;4.00;;;29.30;66.80;;;;;;5036919;28;20052;-69
2023/09/19 10:41:08;;;;;;;12.68;4.00;;;29.40;63.80;;;;;;5036208;28;20530;-69
2023/09/19 10:44:13;;;;;;;13.50;4.55;;;29.50;64.10;;;;;;5036678;28;20044;-68
2023/09/19 10:47:24;;;;;;;15.95;5.03;;;29.60;65.20;;;;;;5036850;28;20072;-68
2023/09/19 10:50:36;;;;;;;12.07;5.10;;;29.70;65.90;;;;;;5036819;28;20409;-68
2023/09/19 10:53:50;;;;;;;12.88;4.45;;;29.70;66.10;;;;;;5035882;28;20064;-69
2023/09/19 10:56:58;;;;;;;17.20;3.75;;;29.80;66.40;;;;;;5036937;28;20053;-71
2023/09/19 11:00:22;;;;;;;13.32;5.03;;;29.90;65.70;;;;;;5036795;28;20040;-70
2023/09/19 11:03:33;;;;;;;11.50;4.40;;;29.90;66.00;;;;;;5036495;28;20048;-69
2023/09/19 11:06:41;;;;;;;7.78;4.03;;;29.90;65.30;;;;;;5035173;28;20044;-69
2023/09/19 11:09:54;;;;;;;11.30;4.53;;;29.90;65.50;;;;;;5033405;28;20060;-69
2023/09/19 11:12:59;;;;;;;10.50;4.80;;;30.00;66.20;;;;;;5033520;28;20048;-69
2023/09/19 11:16:06;;;;;;;10.02;4.25;;;30.00;65.70;;;;;;5033639;28;20061;-69
2023/09/19 11:19:11;;;;;;;9.07;3.90;;;30.00;65.70;;;;;;5033146;28;20064;-69
2023/09/19 11:22:15;;;;;;;10.20;4.22;;;30.10;65.90;;;;;;5033473;28;20045;-68
2023/09/19 11:25:47;;;;;;;8.30;4.25;;;30.10;65.90;;;;;;5033226;28;20118;-69
2023/09/19 11:29:31;;;;;;;15.73;4.10;;;30.10;66.30;;;;;;5033085;28;20060;-68
2023/09/19 11:33:12;;;;;;;11.15;4.40;;;30.10;65.50;;;;;;5032882;28;20056;-69
2023/09/19 11:36:24;;;;;;;10.43;4.40;;;30.10;64.90;;;;;;5033383;28;20061;-69
2023/09/19 11:39:29;;;;;;;15.98;4.57;;;30.10;64.70;;;;;;5032966;28;20044;-68
2023/09/19 11:42:55;;;;;;;18.23;5.28;;;30.10;65.10;;;;;;5032867;28;20049;-69
2023/09/19 11:46:01;;;;;;;16.63;5.05;;;30.00;65.30;;;;;;5033216;28;20059;-69
2023/09/19 11:49:12;;;;;;;19.10;4.57;;;30.10;65.00;;;;;;5032568;28;20397;-68
2023/09/19 11:52:24;;;;;;;10.65;4.30;;;30.10;65.20;;;;;;5032701;28;20048;-69
2023/09/19 11:55:32;;;;;;;10.80;4.40;;;30.10;65.70;;;;;;5031895;28;20052;-69
2023/09/19 11:58:37;;;;;;;15.25;4.28;;;30.10;64.70;;;;;;5032739;28;20044;-68
2023/09/19 12:01:50;;;;;;;9.77;4.28;;;30.20;64.40;;;;;;5032395;28;20040;-69
2023/09/19 12:04:55;;;;;;;11.02;4.35;;;30.20;65.00;;;;;;5032474;28;20048;-68
2023/09/19 12:07:59;;;;;;;14.15;4.10;;;30.20;64.80;;;;;;5032210;28;20056;-68
2023/09/19 12:11:10;;;;;;;18.08;5.07;;;30.20;64.40;;;;;;5032761;28;20056;-68
2023/09/19 12:14:25;;;;;;;11.30;5.10;;;30.20;65.70;;;;;;5042925;28;20052;-69
2023/09/19 12:17:36;;;;;;;8.80;4.60;;;30.20;68.00;;;;;;5032289;28;20527;-69
2023/09/19 12:20:47;;;;;;;13.35;5.18;;;30.20;69.30;;;;;;5032122;28;20056;-69
2023/09/19 12:24:04;;;;;;;16.05;4.72;;;30.30;70.10;;;;;;5031864;28;20551;-69
2023/09/19 12:27:09;;;;;;;22.35;5.05;;;30.30;70.00;;;;;;5032323;28;20049;-69
2023/09/19 12:30:14;;;;;;;12.93;5.07;;;30.30;70.30;;;;;;5031681;28;20146;-68
2023/09/19 12:33:25;;;;;;;20.83;5.65;;;30.30;70.40;;;;;;5031737;28;20040;-68
2023/09/19 12:36:30;;;;;;;17.17;5.03;;;30.30;70.40;;;;;;5032086;28;20536;-69
2023/09/19 12:39:35;;;;;;;15.18;5.22;;;30.30;70.60;;;;;;5032340;28;20057;-69
2023/09/19 12:42:40;;;;;;;11.70;4.97;;;30.30;70.50;;;;;;5031961;28;20500;-68
2023/09/19 12:45:44;;;;;;;16.63;5.10;;;30.30;70.70;;;;;;5032001;28;20049;-69
2023/09/19 12:49:12;;;;;;;13.10;5.00;;;30.20;70.00;;;;;;5031896;28;20505;-68
2023/09/19 12:52:19;;;;;;;12.20;5.10;;;30.20;69.90;;;;;;5032177;28;20402;-69
2023/09/19 12:55:35;;;;;;;22.27;5.15;;;30.20;70.90;;;;;;5031809;28;20373;-69
2023/09/19 12:59:13;;;;;;;26.00;6.45;;;30.20;70.90;;;;;;5031585;28;20045;-69
2023/09/19 13:02:20;;;;;;;15.45;5.95;;;30.20;70.10;;;;;;5031416;28;20056;-69
2023/09/19 13:06:03;;;;;;;16.33;5.10;;;30.20;70.50;;;;;;5031649;28;20053;-69
2023/09/19 13:09:12;;;;;;;24.13;6.22;;;30.20;71.00;;;;;;5031400;28;20056;-69
2023/09/19 13:12:36;;;;;;;21.83;5.72;;;30.20;71.10;;;;;;5030997;28;20049;-69
2023/09/19 13:15:52;;;;;;;25.63;6.15;;;30.20;71.90;;;;;;5031423;28;20040;-69
2023/09/19 13:18:59;;;;;;;14.95;5.82;;;30.20;72.20;;;;;;5031387;28;20572;-69
2023/09/19 13:22:03;;;;;;;14.15;6.55;;;30.20;72.20;;;;;;5030870;28;20049;-69
2023/09/19 13:25:26;;;;;;;16.20;5.93;;;30.10;72.20;;;;;;5031182;28;20072;-69
2023/09/19 13:28:30;;;;;;;29.60;7.25;;;30.10;72.30;;;;;;5030384;28;20036;-69
2023/09/19 13:31:34;;;;;;;13.02;6.20;;;30.20;72.60;;;;;;5030329;28;20060;-69
2023/09/19 13:34:38;;;;;;;12.85;6.10;;;30.10;72.90;;;;;;5030862;28;20053;-68
2023/09/19 13:37:46;;;;;;;19.45;6.20;;;30.10;73.30;;;;;;5030914;28;20505;-69
2023/09/19 13:40:52;;;;;;;17.05;5.93;;;30.10;74.00;;;;;;5031094;28;20060;-68
2023/09/19 13:43:56;;;;;;;17.38;6.47;;;30.10;74.30;;;;;;5030664;28;20048;-68
2023/09/19 13:47:03;;;;;;;10.90;5.57;;;30.10;75.00;;;;;;5031011;28;20397;-68
2023/09/19 13:50:07;;;;;;;15.27;6.35;;;30.10;75.50;;;;;;5030719;28;20061;-68
2023/09/19 13:53:11;;;;;;;15.20;6.03;;;30.10;76.00;;;;;;5030673;28;20505;-68
2023/09/19 13:56:15;;;;;;;16.77;6.05;;;30.00;76.50;;;;;;5030851;28;20048;-68
2023/09/19 13:59:23;;;;;;;16.33;6.60;;;30.00;77.40;;;;;;5030870;28;20040;-68
2023/09/19 14:02:27;;;;;;;20.35;6.35;;;30.00;77.50;;;;;;5030765;28;20052;-68
2023/09/19 14:05:32;;;;;;;14.77;6.53;;;30.00;77.60;;;;;;5030764;28;20060;-69
2023/09/19 14:08:36;;;;;;;20.45;6.53;;;29.90;78.00;;;;;;5030539;28;20060;-69
2023/09/19 14:11:42;;;;;;;13.43;6.20;;;29.90;78.30;;;;;;5030806;28;20109;-70
2023/09/19 14:14:45;;;;;;;36.60;8.25;;;29.90;78.60;;;;;;5029668;28;20049;-69
2023/09/19 14:17:49;;;;;;;25.05;7.38;;;29.80;78.60;;;;;;5029622;28;20508;-71
2023/09/19 14:20:53;;;;;;;20.40;6.97;;;29.80;78.70;;;;;;5030509;28;20054;-69
2023/09/19 14:23:57;;;;;;;71.22;9.55;;;29.80;78.90;;;;;;5030453;28;20389;-70
2023/09/19 14:27:03;;;;;;;48.28;8.32;;;29.70;78.20;;;;;;5030522;28;20048;-71
2023/09/19 14:30:09;;;;;;;28.42;8.30;;;29.70;78.40;;;;;;5030296;28;20485;-69
2023/09/19 14:33:15;;;;;;;16.73;6.70;;;29.60;79.20;;;;;;5030312;28;20040;-70
2023/09/19 14:36:21;;;;;;;18.42;6.35;;;29.60;79.40;;;;;;5030652;28;20048;-69
2023/09/19 14:39:27;;;;;;;23.60;6.18;;;29.60;79.50;;;;;;5030325;28;20064;-69
2023/09/19 14:42:31;;;;;;;24.38;6.13;;;29.60;79.60;;;;;;5032895;28;20056;-69
2023/09/19 14:45:41;;;;;;;35.35;7.68;;;29.50;80.00;;;;;;5034446;28;20393;-70
2023/09/19 14:48:49;;;;;;;12.27;5.93;;;29.50;80.00;;;;;;5033309;28;20044;-71
2023/09/19 14:51:56;;;;;;;17.90;5.65;;;29.50;81.30;;;;;;5033523;28;20053;-71
2023/09/19 14:55:01;;;;;;;15.68;5.65;;;29.50;81.40;;;;;;5034342;28;20060;-70
2023/09/19 14:58:09;;;;;;;50.38;8.23;;;29.40;81.20;;;;;;5035296;28;20519;-71
2023/09/19 15:01:14;;;;;;;50.67;8.45;;;29.40;82.10;;;;;;5034883;28;20040;-70
2023/09/19 15:04:18;;;;;;;31.42;7.35;;;29.40;83.00;;;;;;5033918;28;20046;-69
2023/09/19 15:07:23;;;;;;;15.18;6.75;;;29.30;83.70;;;;;;5034095;28;20049;-72
2023/09/19 15:10:27;;;;;;;29.70;7.78;;;29.30;84.50;;;;;;5033607;28;20056;-69
2023/09/19 15:13:32;;;;;;;23.05;7.45;;;29.20;85.50;;;;;;5032492;28;20052;-70
2023/09/19 15:16:36;;;;;;;43.90;8.77;;;29.20;86.00;;;;;;5033693;28;20075;-70
2023/09/19 15:19:40;;;;;;;44.83;8.80;;;29.20;86.50;;;;;;5032800;28;20045;-69
2023/09/19 15:22:44;;;;;;;20.10;6.15;;;29.20;86.50;;;;;;5032828;28;20148;-68
2023/09/19 15:25:49;;;;;;;19.75;6.50;;;29.20;86.30;;;;;;5033615;28;20048;-68
2023/09/19 15:28:54;;;;;;;27.35;7.78;;;29.20;86.70;;;;;;5032454;28;20060;-68
2023/09/19 15:32:01;;;;;;;15.85;6.63;;;29.10;86.60;;;;;;5033244;28;20052;-69
2023/09/19 15:35:09;;;;;;;16.50;7.28;;;29.10;86.90;;;;;;5032908;28;20053;-68
2023/09/19 15:38:14;;;;;;;16.92;6.35;;;29.10;86.90;;;;;;5032875;28;20076;-69
2023/09/19 15:41:17;;;;;;;15.07;5.45;;;29.10;86.50;;;;;;5032921;28;20036;-69
2023/09/19 15:44:22;;;;;;;15.18;5.78;;;29.00;86.00;;;;;;5033199;28;20057;-69
2023/09/19 15:47:27;;;;;;;11.30;5.03;;;29.00;85.00;;;;;;5032659;28;20040;-69
2023/09/19 15:50:31;;;;;;;16.02;5.65;;;28.90;85.20;;;;;;5032461;28;20540;-70
2023/09/19 15:53:46;;;;;;;10.50;5.28;;;28.90;85.80;;;;;;5031899;28;20044;-69
2023/09/19 15:56:57;;;;;;;18.88;6.32;;;28.90;86.30;;;;;;5032710;28;20072;-70
2023/09/19 16:00:02;;;;;;;18.80;6.63;;;28.90;87.30;;;;;;5032815;28;20548;-70
2023/09/19 16:03:15;;;;;;;15.57;6.97;;;28.80;87.70;;;;;;5032588;28;20040;-70